Webcam Flughafen St.Gallen-Altenrhein

Live-Bilder und Zeitraffer LSZR / ACH.

 

Live aus Altenrhein
LIVE
LSZR 250050Z AUTO 33006KT 5000 FEW050 BKN070 07/05 Q1021
Zeitraffer heute
2019-03-25 00:13:50
LSZR 242250Z AUTO VRB01KT 6000 FEW060 08/05 Q1022
Zeitraffer gestern
2019-03-24 00:14:07
LSZR 232250Z AUTO 19001KT CAVOK 04/00 Q1026
Zeitraffer vor 3 Tagen
2019-03-22 00:14:41
LSZR 212250Z AUTO VRB02KT CAVOK 01/M01 Q1030